createdAt,value
2018-12-17T00:01:16.029Z,35.50
2018-12-17T00:03:41.994Z,35.40
2018-12-17T00:06:08.293Z,35.50
2018-12-17T00:08:34.295Z,35.50
2018-12-17T00:11:00.688Z,36.20
2018-12-17T00:13:26.685Z,35.50
2018-12-17T00:15:52.672Z,35.50
2018-12-17T00:18:18.651Z,35.60
2018-12-17T00:20:44.631Z,35.70
2018-12-17T00:23:10.640Z,35.70
2018-12-17T00:25:36.637Z,35.70
2018-12-17T00:28:08.182Z,35.80
2018-12-17T00:30:30.637Z,35.80
2018-12-17T00:32:56.634Z,35.90
2018-12-17T00:35:22.591Z,35.90
2018-12-17T00:37:48.567Z,35.90
2018-12-17T00:40:14.964Z,35.80
2018-12-17T00:42:41.112Z,35.70
2018-12-17T00:45:07.113Z,35.70
2018-12-17T00:47:33.087Z,35.70
2018-12-17T00:49:59.052Z,35.70
2018-12-17T00:52:25.040Z,35.90
2018-12-17T00:54:51.019Z,35.90
2018-12-17T00:57:16.985Z,35.90
2018-12-17T00:59:42.987Z,35.90
2018-12-17T01:02:08.981Z,36.00
2018-12-17T01:04:34.956Z,36.00
2018-12-17T01:07:00.901Z,36.00
2018-12-17T01:09:27.260Z,36.10
2018-12-17T01:11:53.253Z,36.10
2018-12-17T01:14:19.269Z,36.20
2018-12-17T01:16:45.299Z,36.10
2018-12-17T01:19:11.295Z,36.30
2018-12-17T01:21:37.542Z,36.30
2018-12-17T01:24:03.543Z,36.30
2018-12-17T01:26:29.759Z,36.30
2018-12-17T01:28:55.829Z,36.30
2018-12-17T01:31:21.857Z,36.20
2018-12-17T01:33:47.837Z,36.20
2018-12-17T01:36:13.820Z,36.20
2018-12-17T01:38:39.797Z,36.10
2018-12-17T01:41:05.807Z,35.70
2018-12-17T01:43:31.775Z,35.70
2018-12-17T01:45:57.767Z,36.40
2018-12-17T01:48:23.771Z,35.80
2018-12-17T01:50:50.095Z,35.70
2018-12-17T01:53:16.064Z,35.70
2018-12-17T01:55:42.057Z,35.70
2018-12-17T01:58:08.025Z,35.70
2018-12-17T02:00:34.010Z,36.30
2018-12-17T02:03:00.006Z,35.70
2018-12-17T02:05:26.006Z,35.50
2018-12-17T02:07:52.007Z,35.50
2018-12-17T02:10:18.031Z,35.50
2018-12-17T02:12:44.016Z,35.40
2018-12-17T02:15:09.996Z,35.50
2018-12-17T02:17:35.987Z,35.50
2018-12-17T02:20:01.979Z,35.50
2018-12-17T02:22:27.998Z,35.60
2018-12-17T02:24:53.993Z,35.70
2018-12-17T02:27:19.992Z,35.70
2018-12-17T02:29:45.942Z,35.70
2018-12-17T02:32:11.911Z,35.70
2018-12-17T02:34:37.912Z,35.70
2018-12-17T02:37:03.892Z,35.60
2018-12-17T02:39:29.902Z,35.80
2018-12-17T02:41:55.892Z,35.90
2018-12-17T02:44:21.998Z,35.80
2018-12-17T02:46:48.084Z,35.80
2018-12-17T02:49:14.302Z,35.70
2018-12-17T02:51:40.406Z,35.70
2018-12-17T02:54:06.379Z,35.70
2018-12-17T02:56:32.363Z,35.80
2018-12-17T02:58:58.368Z,35.80
2018-12-17T03:01:24.347Z,35.90
2018-12-17T03:03:50.331Z,36.00
2018-12-17T03:06:16.319Z,36.80
2018-12-17T03:08:42.342Z,36.10
2018-12-17T03:11:08.309Z,36.10
2018-12-17T03:13:34.417Z,36.00
2018-12-17T03:16:00.377Z,36.10
2018-12-17T03:18:26.373Z,36.20
2018-12-17T03:20:52.368Z,36.70
2018-12-17T03:23:18.375Z,36.10
2018-12-17T03:25:44.364Z,36.10
2018-12-17T03:28:10.341Z,36.20
2018-12-17T03:30:36.318Z,36.30
2018-12-17T03:33:02.300Z,36.40
2018-12-17T03:35:28.324Z,36.30
2018-12-17T03:37:54.285Z,36.40
2018-12-17T03:40:20.645Z,36.40
2018-12-17T03:42:46.621Z,36.40
2018-12-17T03:45:12.597Z,36.30
2018-12-17T03:47:38.579Z,36.00
2018-12-17T03:50:04.565Z,36.00
2018-12-17T03:52:30.518Z,36.00
2018-12-17T03:54:56.483Z,36.00
2018-12-17T03:57:22.510Z,36.00
2018-12-17T03:59:48.457Z,35.90
2018-12-17T04:02:14.427Z,36.00
2018-12-17T04:04:40.742Z,35.90
2018-12-17T04:07:06.713Z,35.80
2018-12-17T04:09:32.678Z,35.80
2018-12-17T04:11:58.688Z,35.80
2018-12-17T04:14:24.655Z,35.70
2018-12-17T04:16:50.669Z,35.60
2018-12-17T04:19:16.658Z,35.60
2018-12-17T04:21:42.631Z,35.70
2018-12-17T04:24:08.595Z,35.70
2018-12-17T04:26:34.595Z,35.60
2018-12-17T04:29:06.824Z,35.60
2018-12-17T04:31:28.599Z,35.60
2018-12-17T04:33:54.570Z,35.70
2018-12-17T04:36:20.539Z,35.70
2018-12-17T04:38:50.719Z,35.60
2018-12-17T04:41:16.854Z,35.70
2018-12-17T04:43:42.804Z,35.80
2018-12-17T04:46:08.756Z,35.90
2018-12-17T04:48:34.763Z,36.00
2018-12-17T04:51:00.752Z,36.00
2018-12-17T04:53:26.749Z,35.90
2018-12-17T04:55:52.757Z,35.90
2018-12-17T04:58:18.868Z,35.90
2018-12-17T05:00:44.869Z,35.80
2018-12-17T05:03:10.883Z,35.80
2018-12-17T05:05:36.839Z,36.00
2018-12-17T05:08:02.835Z,35.90
2018-12-17T05:10:28.826Z,35.80
2018-12-17T05:12:54.801Z,35.70
2018-12-17T05:15:20.797Z,35.70
2018-12-17T05:17:46.774Z,35.70
2018-12-17T05:20:12.761Z,35.60
2018-12-17T05:22:38.752Z,35.60
2018-12-17T05:25:04.698Z,35.60
2018-12-17T05:27:30.648Z,35.60
2018-12-17T05:29:56.948Z,35.60
2018-12-17T05:32:22.900Z,35.60
2018-12-17T05:34:49.228Z,35.60
2018-12-17T05:37:15.192Z,35.60
2018-12-17T05:39:41.192Z,35.60
2018-12-17T05:42:07.166Z,35.70
2018-12-17T05:44:33.147Z,35.70
2018-12-17T05:46:59.148Z,35.70
2018-12-17T05:49:25.133Z,35.60
2018-12-17T05:51:51.078Z,35.70
2018-12-17T05:54:17.052Z,36.00
2018-12-17T05:56:43.005Z,36.00
2018-12-17T05:59:08.979Z,36.00
2018-12-17T06:01:34.958Z,36.00
2018-12-17T06:04:00.939Z,36.00
2018-12-17T06:06:26.896Z,36.10
2018-12-17T06:08:52.976Z,36.00
2018-12-17T06:11:18.956Z,36.10
2018-12-17T06:13:44.948Z,36.10
2018-12-17T06:16:11.215Z,36.10
2018-12-17T06:18:37.808Z,36.00
2018-12-17T06:21:03.934Z,35.90
2018-12-17T06:23:29.950Z,35.90
2018-12-17T06:25:55.940Z,36.00
2018-12-17T06:28:21.917Z,36.00
2018-12-17T06:30:47.898Z,36.20
2018-12-17T06:33:15.729Z,36.20
2018-12-17T06:35:41.880Z,36.20
2018-12-17T06:38:07.850Z,36.20
2018-12-17T06:40:33.828Z,36.10
2018-12-17T06:42:59.830Z,36.10
2018-12-17T06:45:25.818Z,36.20
2018-12-17T06:47:51.806Z,36.20
2018-12-17T06:50:17.830Z,36.30
2018-12-17T06:52:43.771Z,36.40
2018-12-17T06:55:09.744Z,36.40
2018-12-17T06:57:35.722Z,36.40
2018-12-17T07:00:01.677Z,36.50
2018-12-17T07:02:27.986Z,36.40
2018-12-17T07:04:54.037Z,36.30
2018-12-17T07:07:20.049Z,36.30
2018-12-17T07:09:46.031Z,36.30
2018-12-17T07:12:12.006Z,36.10
2018-12-17T07:14:37.988Z,36.10
2018-12-17T07:17:03.954Z,36.50
2018-12-17T07:19:29.908Z,36.00
2018-12-17T07:21:55.890Z,35.90
2018-12-17T07:24:22.207Z,35.90
2018-12-17T07:26:48.200Z,35.90
2018-12-17T07:29:14.188Z,35.80
2018-12-17T07:31:40.154Z,35.90
2018-12-17T07:34:06.131Z,36.00
2018-12-17T07:36:32.110Z,35.90
2018-12-17T07:38:58.091Z,35.80
2018-12-17T07:41:24.081Z,35.80
2018-12-17T07:43:50.151Z,35.70
2018-12-17T07:46:16.150Z,35.80
2018-12-17T07:48:42.146Z,35.70
2018-12-17T07:51:08.228Z,35.70
2018-12-17T07:53:34.218Z,35.60
2018-12-17T07:56:00.496Z,35.60
2018-12-17T07:58:26.541Z,35.60
2018-12-17T08:00:52.607Z,35.60
2018-12-17T08:03:18.571Z,35.70
2018-12-17T08:05:44.531Z,35.90
2018-12-17T08:08:10.537Z,35.80
2018-12-17T08:10:36.578Z,35.80
2018-12-17T08:13:02.805Z,35.80
2018-12-17T08:15:28.919Z,35.70
2018-12-17T08:17:54.892Z,35.60
2018-12-17T08:20:20.894Z,35.50
2018-12-17T08:22:46.940Z,35.50
2018-12-17T08:25:12.942Z,35.50
2018-12-17T08:27:38.921Z,35.50
2018-12-17T08:30:04.926Z,35.30
2018-12-17T08:32:30.930Z,35.30
2018-12-17T08:34:56.921Z,35.30
2018-12-17T08:37:22.900Z,35.30
2018-12-17T08:39:48.880Z,35.40
2018-12-17T08:42:14.868Z,35.30
2018-12-17T08:44:40.852Z,35.40
2018-12-17T08:47:06.824Z,35.30
2018-12-17T08:49:32.806Z,35.30
2018-12-17T08:51:58.780Z,35.30
2018-12-17T08:54:24.796Z,35.30
2018-12-17T08:56:50.768Z,35.20
2018-12-17T08:59:16.709Z,35.30
2018-12-17T09:01:42.803Z,35.30
2018-12-17T09:04:08.762Z,35.30
2018-12-17T09:06:34.715Z,35.40
2018-12-17T09:09:00.679Z,35.40
2018-12-17T09:11:26.670Z,35.40
2018-12-17T09:13:52.675Z,35.50
2018-12-17T09:16:18.708Z,35.40
2018-12-17T09:18:44.692Z,35.30
2018-12-17T09:21:10.695Z,35.40
2018-12-17T09:23:36.779Z,35.50
2018-12-17T09:26:02.788Z,35.40
2018-12-17T09:28:28.765Z,35.50
2018-12-17T09:30:54.807Z,35.60
2018-12-17T09:33:20.782Z,35.60
2018-12-17T09:35:46.787Z,35.50
2018-12-17T09:38:12.753Z,35.40
2018-12-17T09:40:38.747Z,35.40
2018-12-17T09:43:05.069Z,35.50
2018-12-17T09:45:31.108Z,35.50
2018-12-17T09:47:57.099Z,35.40
2018-12-17T09:50:23.114Z,35.70
2018-12-17T09:52:49.088Z,35.40
2018-12-17T09:55:18.059Z,35.40
2018-12-17T09:57:44.091Z,35.40
2018-12-17T10:00:10.071Z,35.40
2018-12-17T10:02:36.059Z,35.30
2018-12-17T10:05:02.040Z,35.30
2018-12-17T10:07:30.575Z,35.30
2018-12-17T10:09:56.137Z,35.30
2018-12-17T10:12:22.122Z,35.30
2018-12-17T10:14:48.095Z,35.30
2018-12-17T10:17:14.067Z,35.30
2018-12-17T10:19:40.040Z,35.30
2018-12-17T10:22:06.022Z,35.30
2018-12-17T10:24:32.017Z,35.30
2018-12-17T10:26:58.014Z,35.20
2018-12-17T10:29:24.002Z,35.10
2018-12-17T10:31:49.980Z,35.10
2018-12-17T10:34:15.977Z,35.20
2018-12-17T10:36:42.021Z,35.20
2018-12-17T10:39:08.046Z,35.10
2018-12-17T10:41:37.075Z,35.10
2018-12-17T10:44:03.067Z,35.10
2018-12-17T10:46:29.022Z,35.20
2018-12-17T10:48:55.000Z,35.20
2018-12-17T10:51:20.997Z,35.30
2018-12-17T10:53:46.955Z,35.30
2018-12-17T10:56:12.928Z,35.30
2018-12-17T10:58:38.928Z,35.30
2018-12-17T11:01:11.064Z,35.20
2018-12-17T11:03:39.084Z,35.30
2018-12-17T11:06:06.172Z,35.30
2018-12-17T11:08:32.160Z,35.20
2018-12-17T11:10:58.132Z,35.10
2018-12-17T11:13:24.128Z,35.10
2018-12-17T11:15:50.102Z,35.10
2018-12-17T11:18:16.062Z,35.10
2018-12-17T11:20:42.044Z,35.20
2018-12-17T11:23:08.053Z,35.10
2018-12-17T11:25:34.447Z,35.10
2018-12-17T11:28:00.472Z,35.00
2018-12-17T11:30:26.428Z,35.00
2018-12-17T11:32:52.420Z,35.00
2018-12-17T11:35:18.389Z,35.70
2018-12-17T11:37:44.382Z,35.00
2018-12-17T11:40:10.393Z,35.00
2018-12-17T11:42:36.386Z,35.00
2018-12-17T11:45:02.363Z,35.00
2018-12-17T11:47:28.352Z,35.10
2018-12-17T11:49:54.335Z,35.00
2018-12-17T11:52:20.312Z,35.00
2018-12-17T11:54:46.279Z,34.90
2018-12-17T11:57:12.253Z,35.00
2018-12-17T11:59:38.272Z,35.00
2018-12-17T12:02:04.397Z,35.00
2018-12-17T12:04:30.516Z,35.00
2018-12-17T12:06:56.504Z,35.10
2018-12-17T12:09:25.706Z,34.90
2018-12-17T12:11:51.675Z,34.90
2018-12-17T12:14:17.671Z,35.00
2018-12-17T12:16:43.670Z,35.10
2018-12-17T12:19:09.675Z,35.10
2018-12-17T12:21:35.662Z,35.10
2018-12-17T12:24:01.663Z,35.20
2018-12-17T12:26:27.652Z,35.30
2018-12-17T12:28:53.654Z,35.40
2018-12-17T12:31:19.637Z,35.30
2018-12-17T12:33:52.801Z,35.30
2018-12-17T12:36:18.904Z,35.30
2018-12-17T12:38:44.876Z,35.20
2018-12-17T12:41:10.965Z,35.20
2018-12-17T12:43:36.940Z,35.20
2018-12-17T12:46:02.921Z,35.20
2018-12-17T12:48:28.904Z,35.20
2018-12-17T12:50:54.894Z,35.20
2018-12-17T12:53:20.960Z,35.20
2018-12-17T12:55:46.937Z,35.60
2018-12-17T12:58:12.921Z,35.10
2018-12-17T13:00:38.911Z,35.20
2018-12-17T13:03:05.008Z,35.10
2018-12-17T13:05:31.040Z,35.10
2018-12-17T13:07:57.039Z,35.10
2018-12-17T13:10:23.089Z,35.10
2018-12-17T13:12:49.060Z,35.20
2018-12-17T13:15:15.052Z,35.10
2018-12-17T13:17:41.017Z,35.10
2018-12-17T13:20:07.008Z,35.00
2018-12-17T13:22:32.995Z,35.00
2018-12-17T13:24:59.002Z,35.00
2018-12-17T13:27:25.029Z,35.00
2018-12-17T13:29:51.024Z,35.00
2018-12-17T13:32:17.019Z,34.90
2018-12-17T13:34:43.000Z,34.90
2018-12-17T13:37:09.009Z,35.10
2018-12-17T13:39:34.982Z,35.00
2018-12-17T13:42:00.997Z,35.40
2018-12-17T13:44:26.985Z,35.00
2018-12-17T13:46:52.966Z,35.10
2018-12-17T13:49:19.086Z,35.30
2018-12-17T13:51:51.388Z,35.40
2018-12-17T13:54:17.406Z,35.40
2018-12-17T13:56:43.382Z,35.60
2018-12-17T13:59:09.339Z,35.60
2018-12-17T14:01:35.342Z,36.20
2018-12-17T14:04:01.369Z,35.60
2018-12-17T14:06:27.357Z,35.60
2018-12-17T14:08:53.390Z,35.60
2018-12-17T14:11:19.455Z,35.70
2018-12-17T14:13:45.568Z,35.70
2018-12-17T14:16:13.416Z,35.60
2018-12-17T14:18:45.565Z,35.70
2018-12-17T14:21:17.929Z,35.70
2018-12-17T14:23:43.911Z,35.70
2018-12-17T14:26:09.895Z,35.70
2018-12-17T14:28:35.907Z,35.60
2018-12-17T14:31:01.925Z,35.70
2018-12-17T14:33:27.895Z,35.70
2018-12-17T14:35:59.933Z,35.70
2018-12-17T14:38:25.910Z,35.70
2018-12-17T14:40:51.884Z,35.80
2018-12-17T14:43:17.900Z,35.80
2018-12-17T14:45:43.880Z,35.80
2018-12-17T14:48:09.895Z,35.80
2018-12-17T14:50:35.892Z,35.70
2018-12-17T14:53:01.883Z,35.80
2018-12-17T14:55:27.894Z,35.90
2018-12-17T14:57:53.875Z,35.90
2018-12-17T15:00:19.851Z,35.80
2018-12-17T15:02:45.850Z,35.80
2018-12-17T15:05:11.838Z,36.00
2018-12-17T15:07:37.852Z,35.90
2018-12-17T15:10:03.856Z,35.90
2018-12-17T15:12:29.850Z,36.10
2018-12-17T15:14:55.818Z,36.10
2018-12-17T15:17:21.803Z,35.80
2018-12-17T15:19:47.888Z,35.30
2018-12-17T15:22:13.880Z,35.00
2018-12-17T15:24:40.502Z,34.70
2018-12-17T15:27:06.790Z,34.70
2018-12-17T15:29:32.773Z,34.40
2018-12-17T15:31:58.876Z,34.20
2018-12-17T15:34:24.907Z,34.00
2018-12-17T15:36:50.910Z,33.90
2018-12-17T15:39:16.927Z,33.70
2018-12-17T15:41:42.923Z,33.60
2018-12-17T15:44:08.915Z,33.30
2018-12-17T15:46:34.863Z,33.20
2018-12-17T15:49:01.213Z,33.00
2018-12-17T15:51:27.211Z,32.90
2018-12-17T15:53:53.195Z,32.80
2018-12-17T15:56:19.147Z,32.60
2018-12-17T15:58:45.119Z,32.40
2018-12-17T16:01:11.099Z,33.00
2018-12-17T16:03:37.074Z,32.10
2018-12-17T16:06:03.064Z,32.20
2018-12-17T16:08:29.038Z,32.10
2018-12-17T16:10:55.013Z,32.00
2018-12-17T16:13:21.118Z,32.00
2018-12-17T16:15:47.145Z,32.10
2018-12-17T16:18:13.145Z,32.20
2018-12-17T16:20:39.101Z,32.20
2018-12-17T16:23:05.107Z,32.20
2018-12-17T16:25:31.526Z,32.10
2018-12-17T16:27:57.965Z,32.20
2018-12-17T16:30:24.013Z,32.10
2018-12-17T16:32:49.982Z,32.10
2018-12-17T16:35:15.944Z,32.20
2018-12-17T16:37:41.955Z,32.10
2018-12-17T16:40:08.051Z,32.10
2018-12-17T16:42:34.029Z,32.00
2018-12-17T16:45:00.026Z,31.90
2018-12-17T16:47:26.026Z,32.00
2018-12-17T16:49:52.008Z,32.70
2018-12-17T16:52:17.992Z,31.90
2018-12-17T16:54:43.994Z,32.00
2018-12-17T16:57:09.963Z,32.10
2018-12-17T16:59:35.957Z,32.30
2018-12-17T17:02:04.693Z,32.30
2018-12-17T17:04:29.914Z,32.40
2018-12-17T17:06:55.928Z,32.30
2018-12-17T17:09:21.943Z,32.30
2018-12-17T17:11:47.912Z,32.40
2018-12-17T17:14:13.911Z,32.30
2018-12-17T17:16:39.920Z,32.60
2018-12-17T17:19:05.922Z,33.20
2018-12-17T17:21:31.928Z,32.70
2018-12-17T17:23:57.960Z,32.70
2018-12-17T17:26:23.936Z,32.80
2018-12-17T17:28:49.934Z,32.70
2018-12-17T17:31:15.945Z,32.80
2018-12-17T17:33:42.024Z,32.80
2018-12-17T17:36:08.027Z,32.80
2018-12-17T17:38:34.036Z,32.80
2018-12-17T17:41:00.037Z,32.80
2018-12-17T17:43:26.014Z,32.80
2018-12-17T17:45:52.012Z,32.80
2018-12-17T17:48:17.999Z,32.60
2018-12-17T17:50:43.997Z,32.50
2018-12-17T17:53:10.042Z,32.50
2018-12-17T17:55:36.040Z,32.60
2018-12-17T17:58:02.021Z,32.60
2018-12-17T18:00:28.017Z,32.70
2018-12-17T18:02:54.014Z,32.80
2018-12-17T18:05:19.992Z,32.60
2018-12-17T18:07:45.993Z,32.80
2018-12-17T18:10:11.956Z,32.60
2018-12-17T18:12:37.948Z,32.60
2018-12-17T18:15:03.955Z,32.80
2018-12-17T18:17:29.908Z,32.80
2018-12-17T18:19:55.874Z,33.00
2018-12-17T18:22:21.858Z,33.20
2018-12-17T18:24:47.877Z,33.30
2018-12-17T18:27:13.868Z,33.30
2018-12-17T18:29:39.849Z,33.20
2018-12-17T18:32:05.875Z,33.10
2018-12-17T18:34:31.870Z,33.20
2018-12-17T18:36:57.864Z,33.20
2018-12-17T18:39:24.097Z,33.20
2018-12-17T18:41:50.108Z,33.00
2018-12-17T18:44:16.097Z,33.00
2018-12-17T18:46:42.085Z,33.30
2018-12-17T18:49:08.091Z,33.00
2018-12-17T18:51:34.114Z,33.10
2018-12-17T18:54:00.104Z,33.10
2018-12-17T18:56:26.093Z,33.20
2018-12-17T18:58:52.076Z,33.20
2018-12-17T19:01:18.089Z,33.40
2018-12-17T19:03:44.096Z,32.90
2018-12-17T19:06:10.064Z,33.90
2018-12-17T19:08:36.089Z,34.20
2018-12-17T19:11:02.170Z,34.50
2018-12-17T19:13:28.195Z,34.70
2018-12-17T19:15:54.173Z,35.60
2018-12-17T19:18:20.166Z,35.10
2018-12-17T19:20:46.170Z,35.20
2018-12-17T19:23:12.216Z,35.30
2018-12-17T19:25:38.180Z,35.50
2018-12-17T19:28:04.203Z,35.50
2018-12-17T19:30:30.181Z,35.50
2018-12-17T19:32:56.169Z,35.60
2018-12-17T19:35:22.173Z,35.60
2018-12-17T19:37:48.146Z,35.50
2018-12-17T19:40:14.133Z,35.60
2018-12-17T19:42:40.108Z,35.50
2018-12-17T19:45:06.080Z,35.60
2018-12-17T19:47:32.069Z,35.70
2018-12-17T19:49:58.061Z,35.60
2018-12-17T19:52:24.063Z,35.70
2018-12-17T19:54:50.079Z,36.10
2018-12-17T19:57:16.055Z,35.80
2018-12-17T19:59:42.012Z,35.90
2018-12-17T20:02:08.034Z,35.80
2018-12-17T20:04:34.021Z,35.80
2018-12-17T20:07:00.031Z,35.90
2018-12-17T20:09:26.021Z,35.90
2018-12-17T20:11:52.112Z,35.90
2018-12-17T20:14:18.121Z,36.00
2018-12-17T20:16:44.122Z,36.00
2018-12-17T20:19:10.087Z,36.10
2018-12-17T20:21:36.075Z,36.10
2018-12-17T20:24:02.062Z,36.10
2018-12-17T20:26:28.040Z,36.10
2018-12-17T20:28:54.046Z,36.20
2018-12-17T20:31:20.032Z,36.20
2018-12-17T20:33:46.020Z,36.30
2018-12-17T20:36:12.016Z,36.30
2018-12-17T20:38:38.033Z,36.30
2018-12-17T20:41:04.043Z,36.40
2018-12-17T20:43:30.041Z,36.50
2018-12-17T20:45:56.011Z,36.50
2018-12-17T20:48:21.992Z,36.60
2018-12-17T20:50:47.976Z,36.50
2018-12-17T20:53:13.969Z,36.50
2018-12-17T20:55:39.960Z,36.50
2018-12-17T20:58:05.965Z,36.50
2018-12-17T21:00:31.966Z,36.50
2018-12-17T21:03:00.517Z,37.20
2018-12-17T21:05:26.005Z,36.40
2018-12-17T21:07:51.967Z,36.40
2018-12-17T21:10:17.972Z,36.50
2018-12-17T21:12:43.976Z,36.60
2018-12-17T21:15:09.992Z,36.60
2018-12-17T21:17:36.043Z,36.80
2018-12-17T21:20:02.104Z,36.80
2018-12-17T21:22:28.269Z,36.90
2018-12-17T21:24:54.373Z,36.90
2018-12-17T21:27:20.363Z,36.80
2018-12-17T21:29:46.372Z,36.80
2018-12-17T21:32:12.343Z,36.90
2018-12-17T21:34:38.312Z,36.90
2018-12-17T21:37:04.312Z,36.80
2018-12-17T21:39:30.328Z,36.90
2018-12-17T21:41:56.318Z,36.80
2018-12-17T21:44:22.284Z,37.00
2018-12-17T21:46:48.266Z,37.00
2018-12-17T21:49:14.225Z,37.00
2018-12-17T21:51:40.220Z,37.50
2018-12-17T21:54:06.228Z,36.90
2018-12-17T21:56:32.287Z,37.00
2018-12-17T21:58:58.269Z,37.00
2018-12-17T22:01:24.303Z,37.00
2018-12-17T22:03:50.285Z,37.10
2018-12-17T22:06:16.273Z,37.00
2018-12-17T22:08:50.743Z,37.10
2018-12-17T22:11:16.721Z,37.20
2018-12-17T22:13:42.710Z,37.00
2018-12-17T22:16:08.701Z,37.00
2018-12-17T22:18:34.741Z,37.10
2018-12-17T22:21:00.749Z,37.20
2018-12-17T22:23:26.778Z,37.20
2018-12-17T22:25:52.804Z,37.20
2018-12-17T22:28:18.807Z,37.30
2018-12-17T22:30:44.793Z,37.30
2018-12-17T22:33:10.767Z,37.40
2018-12-17T22:35:36.775Z,37.40
2018-12-17T22:38:02.760Z,38.20
2018-12-17T22:40:28.735Z,37.50
2018-12-17T22:42:54.715Z,37.50
2018-12-17T22:45:20.713Z,37.60
2018-12-17T22:47:46.715Z,37.60
2018-12-17T22:50:12.691Z,37.60
2018-12-17T22:52:38.676Z,37.60
2018-12-17T22:55:04.774Z,37.70
2018-12-17T22:57:30.784Z,37.60
2018-12-17T22:59:56.787Z,37.40
2018-12-17T23:02:22.799Z,37.70
2018-12-17T23:04:48.803Z,37.70
2018-12-17T23:07:14.815Z,37.70
2018-12-17T23:09:40.818Z,37.80
2018-12-17T23:12:07.699Z,37.80
2018-12-17T23:14:33.675Z,37.80
2018-12-17T23:16:59.713Z,37.90
2018-12-17T23:19:25.718Z,38.00
2018-12-17T23:21:52.662Z,37.90
2018-12-17T23:24:18.664Z,38.00
2018-12-17T23:26:44.677Z,38.00
2018-12-17T23:29:10.631Z,38.00
2018-12-17T23:31:36.610Z,38.00
2018-12-17T23:34:02.680Z,37.90
2018-12-17T23:36:28.801Z,37.70
2018-12-17T23:38:54.756Z,37.90
2018-12-17T23:41:20.732Z,37.90
2018-12-17T23:43:46.727Z,37.90
2018-12-17T23:46:12.704Z,37.90
2018-12-17T23:48:38.682Z,37.80
2018-12-17T23:51:04.681Z,37.90
2018-12-17T23:53:30.647Z,37.90
2018-12-17T23:55:56.655Z,37.90
2018-12-17T23:58:22.651Z,38.00
